Time;durP1;ratioP1;P1;durP2;ratioP2;P2;SDS_P1;SDS_P2;PMS_P1;PMS_P2;Temp;Humidity;BMP_temperature;BMP_pressure;BME280_temperature;BME280_humidity;BME280_pressure;Samples;Min_cycle;Max_cycle;Signal;HPM_P1;HPM_P2
2022/11/14 00:00:32;;;;;;;52.63;30.90;;;6.30;99.90;;;;;;5065652;28;20040;-66
2022/11/14 00:03:05;;;;;;;50.83;31.95;;;6.20;99.90;;;;;;5060038;28;20468;-66
2022/11/14 00:05:31;;;;;;;49.53;31.65;;;6.30;99.90;;;;;;5061555;28;20068;-65
2022/11/14 00:07:57;;;;;;;51.03;32.10;;;6.30;99.90;;;;;;5058046;28;20519;-66
2022/11/14 00:10:23;;;;;;;49.88;31.95;;;6.30;99.90;;;;;;5064695;28;20052;-66
2022/11/14 00:12:49;;;;;;;47.42;31.95;;;6.40;99.90;;;;;;5062673;28;20043;-66
2022/11/14 00:15:15;;;;;;;50.15;34.05;;;6.40;99.90;;;;;;5067879;28;20037;-66
2022/11/14 00:17:41;;;;;;;50.30;34.03;;;6.40;99.90;;;;;;5059407;28;20120;-65
2022/11/14 00:20:09;;;;;;;50.35;32.75;;;6.40;99.90;;;;;;5064595;28;20055;-66
2022/11/14 00:22:35;;;;;;;48.10;32.90;;;6.40;99.90;;;;;;5043395;28;20431;-66
2022/11/14 00:25:00;;;;;;;51.10;33.28;;;6.40;99.90;;;;;;5055506;28;20047;-66
2022/11/14 00:27:26;;;;;;;49.05;34.38;;;6.40;99.90;;;;;;5060678;28;20045;-66
2022/11/14 00:29:52;;;;;;;47.47;33.03;;;6.50;99.90;;;;;;5061382;28;20127;-66
2022/11/14 00:32:18;;;;;;;50.42;33.95;;;6.50;99.90;;;;;;5066375;28;20033;-65
2022/11/14 00:34:44;;;;;;;44.50;31.05;;;6.50;99.90;;;;;;5060257;28;20401;-65
2022/11/14 00:37:10;;;;;;;47.08;32.20;;;6.50;99.90;;;;;;5064625;28;20036;-67
2022/11/14 00:39:36;;;;;;;51.58;34.10;;;6.50;99.90;;;;;;5041637;28;20140;-66
2022/11/14 00:42:02;;;;;;;50.65;33.80;;;6.50;99.90;;;;;;5062992;28;20044;-65
2022/11/14 00:44:27;;;;;;;45.40;32.60;;;6.60;99.90;;;;;;5061155;28;20436;-65
2022/11/14 00:46:53;;;;;;;46.47;32.13;;;6.50;99.90;;;;;;5061793;28;20071;-66
2022/11/14 00:49:19;;;;;;;52.90;34.08;;;6.50;99.90;;;;;;5056615;28;20041;-66
2022/11/14 00:51:44;;;;;;;46.50;33.90;;;6.50;99.90;;;;;;5063639;28;20400;-65
2022/11/14 00:54:10;;;;;;;48.65;32.70;;;6.60;99.90;;;;;;5060317;28;20037;-66
2022/11/14 00:56:36;;;;;;;46.83;34.17;;;6.60;99.90;;;;;;5059931;28;20049;-66
2022/11/14 00:59:02;;;;;;;49.00;35.25;;;6.60;99.90;;;;;;5061406;28;20041;-66
2022/11/14 01:01:27;;;;;;;52.05;35.15;;;6.50;99.90;;;;;;5061597;28;20566;-66
2022/11/14 01:03:53;;;;;;;48.83;35.65;;;6.60;99.90;;;;;;5064688;28;20039;-66
2022/11/14 01:06:19;;;;;;;53.65;37.08;;;6.50;99.90;;;;;;5043221;28;20029;-66
2022/11/14 01:08:45;;;;;;;49.88;35.22;;;6.60;99.90;;;;;;5061641;28;20063;-65
2022/11/14 01:11:15;;;;;;;49.08;34.63;;;6.50;99.90;;;;;;5061659;28;20051;-65
2022/11/14 01:13:41;;;;;;;50.33;37.25;;;6.50;99.90;;;;;;5062831;28;20063;-66
2022/11/14 01:16:07;;;;;;;52.22;36.83;;;6.50;99.90;;;;;;5059682;28;20526;-65
2022/11/14 01:18:33;;;;;;;53.95;36.65;;;6.60;99.90;;;;;;5060137;28;20052;-65
2022/11/14 01:20:59;;;;;;;49.22;36.75;;;6.50;99.90;;;;;;5042168;28;20050;-65
2022/11/14 01:23:24;;;;;;;54.30;37.78;;;6.50;99.90;;;;;;5060403;28;20155;-66
2022/11/14 01:25:50;;;;;;;52.92;37.53;;;6.50;99.90;;;;;;5041307;28;20384;-66
2022/11/14 01:28:19;;;;;;;55.60;39.60;;;6.50;99.90;;;;;;5064521;28;20083;-66
2022/11/14 01:30:45;;;;;;;55.53;38.30;;;6.50;99.90;;;;;;5058787;28;20045;-66
2022/11/14 01:33:11;;;;;;;56.17;39.30;;;6.50;99.90;;;;;;5058126;28;20039;-66
2022/11/14 01:35:37;;;;;;;58.20;40.45;;;6.50;99.90;;;;;;5058776;28;20041;-66
2022/11/14 01:38:05;;;;;;;56.42;38.50;;;6.50;99.90;;;;;;5063187;28;20048;-66
2022/11/14 01:40:31;;;;;;;54.33;39.33;;;6.40;99.90;;;;;;5059093;28;20128;-65
2022/11/14 01:43:15;;;;;;;55.67;38.42;;;6.40;99.90;;;;;;5061821;28;20433;-66
2022/11/14 01:46:03;;;;;;;56.88;39.20;;;6.40;99.90;;;;;;5063348;28;20032;-66
2022/11/14 01:48:49;;;;;;;57.25;38.55;;;6.30;99.90;;;;;;5061982;28;20109;-66
2022/11/14 01:51:25;;;;;;;57.92;40.83;;;6.20;99.90;;;;;;5060386;28;20063;-66
2022/11/14 01:53:54;;;;;;;56.58;39.17;;;6.20;99.90;;;;;;5061561;28;20527;-66
2022/11/14 01:56:34;;;;;;;56.47;37.50;;;6.20;99.90;;;;;;5041522;28;20168;-66
2022/11/14 01:59:03;;;;;;;61.40;40.28;;;6.20;99.90;;;;;;5063157;28;20495;-65
2022/11/14 02:01:33;;;;;;;57.00;39.78;;;6.20;99.90;;;;;;5063793;28;20288;-65
2022/11/14 02:04:00;;;;;;;56.67;38.83;;;6.10;99.90;;;;;;5061108;28;20111;-65
2022/11/14 02:06:29;;;;;;;60.50;39.40;;;6.10;99.90;;;;;;5061854;28;20041;-65
2022/11/14 02:08:56;;;;;;;60.80;40.90;;;6.10;99.90;;;;;;5062357;28;20047;-66
2022/11/14 02:11:22;;;;;;;62.65;41.28;;;6.20;99.90;;;;;;5056582;28;20677;-66
2022/11/14 02:13:48;;;;;;;61.10;42.00;;;6.10;99.90;;;;;;5062382;28;20105;-65
2022/11/14 02:16:14;;;;;;;59.33;39.03;;;6.10;99.90;;;;;;5058029;28;20044;-66
2022/11/14 02:18:40;;;;;;;61.58;42.70;;;6.10;99.90;;;;;;5058746;28;20037;-66
2022/11/14 02:21:06;;;;;;;62.88;42.45;;;6.20;99.90;;;;;;5056455;28;20040;-65
2022/11/14 02:23:32;;;;;;;63.13;43.60;;;6.10;99.90;;;;;;5058997;28;20059;-66
2022/11/14 02:25:58;;;;;;;64.72;43.38;;;6.20;99.90;;;;;;5062331;28;20456;-65
2022/11/14 02:28:24;;;;;;;64.20;41.70;;;6.20;99.90;;;;;;5061689;28;20067;-66
2022/11/14 02:30:50;;;;;;;68.20;44.45;;;6.20;99.90;;;;;;5056324;28;20450;-66
2022/11/14 02:33:16;;;;;;;66.07;43.83;;;6.20;99.90;;;;;;5056128;28;20025;-65
2022/11/14 02:35:42;;;;;;;66.32;44.50;;;6.20;99.90;;;;;;5065479;28;20071;-66
2022/11/14 02:38:08;;;;;;;67.50;45.03;;;6.20;99.90;;;;;;5064415;28;20100;-65
2022/11/14 02:40:33;;;;;;;67.82;45.13;;;6.20;99.90;;;;;;5060441;28;20136;-66
2022/11/14 02:42:59;;;;;;;69.18;44.30;;;6.20;99.90;;;;;;5057960;28;20101;-66
2022/11/14 02:45:25;;;;;;;67.72;44.58;;;6.10;99.90;;;;;;5048469;28;20058;-66
2022/11/14 02:47:51;;;;;;;70.55;45.22;;;6.20;99.90;;;;;;5055571;28;20041;-66
2022/11/14 02:50:19;;;;;;;70.45;45.83;;;6.20;99.90;;;;;;5064615;28;20053;-66
2022/11/14 02:52:45;;;;;;;68.10;44.47;;;6.20;99.90;;;;;;5060014;28;20053;-65
2022/11/14 02:55:11;;;;;;;76.35;47.67;;;6.10;99.90;;;;;;5060067;28;20036;-66
2022/11/14 02:57:37;;;;;;;72.20;46.72;;;6.10;99.90;;;;;;5060082;28;20052;-65
2022/11/14 03:00:04;;;;;;;68.40;44.85;;;6.20;99.90;;;;;;5061160;28;20364;-65
2022/11/14 03:02:30;;;;;;;72.68;46.85;;;6.20;99.90;;;;;;5056561;28;20075;-65
2022/11/14 03:04:55;;;;;;;69.55;46.45;;;6.10;99.90;;;;;;5060829;28;20068;-66
2022/11/14 03:07:21;;;;;;;72.82;45.60;;;6.20;99.90;;;;;;5058869;28;20094;-66
2022/11/14 03:09:47;;;;;;;71.75;46.05;;;6.20;99.90;;;;;;5053979;28;20054;-66
2022/11/14 03:12:18;;;;;;;74.30;47.80;;;6.20;99.90;;;;;;5064151;28;20392;-66
2022/11/14 03:14:44;;;;;;;70.18;45.05;;;6.20;99.90;;;;;;5063954;28;20049;-66
2022/11/14 03:17:11;;;;;;;70.28;45.85;;;6.20;99.90;;;;;;5061527;28;20403;-65
2022/11/14 03:19:37;;;;;;;71.70;46.60;;;6.10;99.90;;;;;;5058138;28;20468;-66
2022/11/14 03:22:03;;;;;;;67.88;44.67;;;6.20;99.90;;;;;;5063142;28;20067;-66
2022/11/14 03:24:29;;;;;;;71.40;44.67;;;6.20;99.90;;;;;;5064158;28;20055;-65
2022/11/14 03:26:55;;;;;;;71.30;45.80;;;6.10;99.90;;;;;;5064566;28;20036;-66
2022/11/14 03:29:21;;;;;;;69.90;45.70;;;6.10;99.90;;;;;;5058961;28;20044;-66
2022/11/14 03:31:46;;;;;;;73.20;48.17;;;6.20;99.90;;;;;;5063796;28;20469;-65
2022/11/14 03:34:12;;;;;;;75.05;47.75;;;6.10;99.90;;;;;;5062007;28;20048;-65
2022/11/14 03:36:38;;;;;;;71.82;46.53;;;6.10;99.90;;;;;;5059266;28;20036;-65
2022/11/14 03:39:04;;;;;;;71.53;46.65;;;6.10;99.90;;;;;;5059924;28;20036;-66
2022/11/14 03:41:30;;;;;;;70.93;45.40;;;6.10;99.90;;;;;;5050880;28;20043;-66
2022/11/14 03:43:56;;;;;;;72.65;46.38;;;6.10;99.90;;;;;;5065685;28;20032;-66
2022/11/14 03:46:23;;;;;;;69.85;44.72;;;6.10;99.90;;;;;;5065451;28;20036;-65
2022/11/14 03:48:48;;;;;;;73.72;46.67;;;6.00;99.90;;;;;;5064007;28;20057;-65
2022/11/14 03:51:14;;;;;;;70.65;45.22;;;6.00;99.90;;;;;;5066300;28;20053;-65
2022/11/14 03:53:40;;;;;;;70.78;45.75;;;6.00;99.90;;;;;;5064725;28;20487;-65
2022/11/14 03:56:06;;;;;;;68.25;44.70;;;6.00;99.90;;;;;;5062534;28;20515;-65
2022/11/14 03:58:31;;;;;;;68.82;43.33;;;6.00;99.90;;;;;;5052260;28;20043;-65
2022/11/14 04:00:57;;;;;;;70.43;45.33;;;6.00;99.90;;;;;;5062525;28;20079;-66
2022/11/14 04:03:23;;;;;;;70.38;45.53;;;6.00;99.90;;;;;;5061290;28;20548;-66
2022/11/14 04:05:49;;;;;;;67.93;43.78;;;6.00;99.90;;;;;;5042246;28;20033;-66
2022/11/14 04:08:15;;;;;;;69.80;44.55;;;6.00;99.90;;;;;;5062666;28;20033;-65
2022/11/14 04:10:41;;;;;;;70.28;45.47;;;6.10;99.90;;;;;;5064539;28;20040;-66
2022/11/14 04:13:07;;;;;;;70.30;46.10;;;6.00;99.90;;;;;;5059874;28;20087;-66
2022/11/14 04:15:33;;;;;;;71.32;45.67;;;6.00;99.90;;;;;;5060197;28;20125;-65
2022/11/14 04:17:59;;;;;;;69.60;45.83;;;6.00;99.90;;;;;;5063450;28;20491;-66
2022/11/14 04:20:25;;;;;;;68.05;44.35;;;6.00;99.90;;;;;;5057775;28;20135;-65
2022/11/14 04:22:50;;;;;;;67.10;43.92;;;6.00;99.90;;;;;;5046891;28;20043;-66
2022/11/14 04:25:16;;;;;;;66.88;45.13;;;6.00;99.90;;;;;;5058424;28;20116;-66
2022/11/14 04:27:43;;;;;;;68.30;43.97;;;6.00;99.90;;;;;;5065057;28;20518;-66
2022/11/14 04:30:09;;;;;;;68.15;45.55;;;6.00;99.90;;;;;;5061589;28;20102;-66
2022/11/14 04:32:35;;;;;;;71.57;44.97;;;6.00;99.90;;;;;;5060312;28;20044;-66
2022/11/14 04:35:00;;;;;;;67.07;44.60;;;6.00;99.90;;;;;;5060996;28;20044;-65
2022/11/14 04:37:26;;;;;;;66.13;43.00;;;5.90;99.90;;;;;;5059908;28;20045;-66
2022/11/14 04:39:52;;;;;;;66.82;44.38;;;5.90;99.90;;;;;;5064709;28;20032;-65
2022/11/14 04:42:18;;;;;;;65.13;43.92;;;6.10;99.90;;;;;;5055253;28;20115;-66
2022/11/14 04:44:43;;;;;;;68.05;44.13;;;6.00;99.90;;;;;;5064524;28;20060;-65
2022/11/14 04:47:09;;;;;;;65.32;44.25;;;6.00;99.90;;;;;;5061760;28;20032;-65
2022/11/14 04:49:35;;;;;;;68.45;44.67;;;6.00;99.90;;;;;;5061469;28;20049;-65
2022/11/14 04:52:01;;;;;;;67.90;44.42;;;6.00;99.90;;;;;;5062736;28;20635;-66
2022/11/14 04:54:26;;;;;;;68.47;44.85;;;6.00;99.90;;;;;;5060971;28;20049;-65
2022/11/14 04:56:52;;;;;;;66.60;43.50;;;6.00;99.90;;;;;;5063615;28;20463;-65
2022/11/14 04:59:17;;;;;;;63.78;42.92;;;6.00;99.90;;;;;;5063137;28;20381;-65
2022/11/14 05:01:43;;;;;;;69.07;43.90;;;6.00;99.90;;;;;;5061367;28;20044;-66
2022/11/14 05:04:09;;;;;;;67.65;45.67;;;6.00;99.90;;;;;;5063376;28;20044;-65
2022/11/14 05:06:34;;;;;;;66.53;44.40;;;6.00;99.90;;;;;;5063785;28;20036;-65
2022/11/14 05:09:00;;;;;;;64.78;44.17;;;6.00;99.90;;;;;;5062893;28;20036;-65
2022/11/14 05:11:26;;;;;;;68.63;45.30;;;6.00;99.90;;;;;;5060884;28;20043;-66
2022/11/14 05:13:51;;;;;;;64.70;42.20;;;6.10;99.90;;;;;;5056751;28;20109;-66
2022/11/14 05:16:17;;;;;;;62.67;43.22;;;6.10;99.90;;;;;;5041361;28;20076;-65
2022/11/14 05:18:43;;;;;;;63.28;43.88;;;6.10;99.90;;;;;;5056935;28;20037;-66
2022/11/14 05:21:14;;;;;;;67.78;43.28;;;6.10;99.90;;;;;;5064247;28;20029;-66
2022/11/14 05:23:40;;;;;;;63.05;43.13;;;6.10;99.90;;;;;;5057924;28;20128;-66
2022/11/14 05:26:09;;;;;;;69.75;45.40;;;6.10;99.90;;;;;;5062287;28;20123;-66
2022/11/14 05:28:35;;;;;;;65.65;43.63;;;6.10;99.90;;;;;;5056448;28;20067;-65
2022/11/14 05:31:03;;;;;;;68.10;44.55;;;6.00;99.90;;;;;;5059281;28;20094;-66
2022/11/14 05:33:30;;;;;;;64.43;44.45;;;6.10;99.90;;;;;;5061573;28;20052;-66
2022/11/14 05:36:00;;;;;;;61.78;43.08;;;6.00;99.90;;;;;;5062019;28;20032;-66
2022/11/14 05:38:25;;;;;;;61.47;41.90;;;6.10;99.90;;;;;;5059039;28;20090;-66
2022/11/14 05:40:51;;;;;;;62.38;41.13;;;6.10;99.90;;;;;;5042274;28;20432;-67
2022/11/14 05:43:17;;;;;;;64.80;42.60;;;6.10;99.90;;;;;;5058768;28;20041;-66
2022/11/14 05:45:43;;;;;;;63.70;44.17;;;6.10;99.90;;;;;;5060482;28;20036;-65
2022/11/14 05:48:08;;;;;;;62.97;41.05;;;6.00;99.90;;;;;;5057470;28;20443;-66
2022/11/14 05:50:34;;;;;;;66.05;43.00;;;6.00;99.90;;;;;;5061591;28;20044;-66
2022/11/14 05:52:59;;;;;;;68.18;42.83;;;6.00;99.90;;;;;;5061925;28;20044;-66
2022/11/14 05:55:25;;;;;;;71.97;43.72;;;6.00;99.90;;;;;;5054191;28;20108;-65
2022/11/14 05:57:51;;;;;;;67.50;44.03;;;6.00;99.90;;;;;;5064173;28;20067;-65
2022/11/14 06:00:17;;;;;;;70.97;45.40;;;6.00;99.90;;;;;;5060108;28;20124;-66
2022/11/14 06:02:44;;;;;;;68.95;45.63;;;6.00;99.90;;;;;;5057939;28;20511;-66
2022/11/14 06:05:10;;;;;;;68.40;43.30;;;6.00;99.90;;;;;;5037922;28;20140;-66
2022/11/14 06:07:37;;;;;;;68.25;44.92;;;6.00;99.90;;;;;;5044019;28;20111;-66
2022/11/14 06:10:03;;;;;;;69.00;44.25;;;6.00;99.90;;;;;;5039298;28;20056;-65
2022/11/14 06:12:31;;;;;;;67.55;43.10;;;6.00;99.90;;;;;;5062013;28;20040;-65
2022/11/14 06:14:57;;;;;;;72.82;46.80;;;6.00;99.90;;;;;;5057767;28;20048;-66
2022/11/14 06:17:22;;;;;;;66.43;43.55;;;5.90;99.90;;;;;;5058315;28;20460;-66
2022/11/14 06:19:48;;;;;;;68.03;43.10;;;5.90;99.90;;;;;;5063028;28;20039;-66
2022/11/14 06:22:14;;;;;;;73.10;45.55;;;6.00;99.90;;;;;;5061264;28;20102;-66
2022/11/14 06:24:39;;;;;;;75.68;44.70;;;5.90;99.90;;;;;;5057095;28;20480;-66
2022/11/14 06:27:05;;;;;;;72.15;45.90;;;5.90;99.90;;;;;;5061396;28;20467;-65
2022/11/14 06:29:31;;;;;;;73.68;47.63;;;5.80;99.90;;;;;;5055539;28;20040;-66
2022/11/14 06:31:56;;;;;;;70.25;44.08;;;5.90;99.90;;;;;;5057946;28;20037;-65
2022/11/14 06:34:22;;;;;;;68.35;42.35;;;5.80;99.90;;;;;;5060153;28;20094;-66
2022/11/14 06:36:48;;;;;;;74.18;44.83;;;5.90;99.90;;;;;;5057063;28;20365;-66
2022/11/14 06:39:13;;;;;;;67.18;42.67;;;5.90;99.90;;;;;;5060143;28;20032;-66
2022/11/14 06:41:39;;;;;;;72.10;44.38;;;5.90;99.90;;;;;;5057846;28;20039;-65
2022/11/14 06:44:07;;;;;;;71.30;43.15;;;5.90;99.90;;;;;;5056794;28;20033;-66
2022/11/14 06:46:33;;;;;;;68.78;44.05;;;5.80;99.90;;;;;;5062484;28;20041;-66
2022/11/14 06:48:58;;;;;;;65.28;42.80;;;5.80;99.90;;;;;;5063676;28;20055;-66
2022/11/14 06:51:24;;;;;;;69.13;42.42;;;5.70;99.90;;;;;;5056546;28;20088;-65
2022/11/14 06:53:50;;;;;;;77.20;44.78;;;5.70;99.90;;;;;;5055908;28;20710;-65
2022/11/14 06:56:19;;;;;;;70.10;41.75;;;5.70;99.90;;;;;;5057112;28;20048;-66
2022/11/14 06:58:47;;;;;;;74.00;44.85;;;5.70;99.90;;;;;;5056776;28;20052;-66
2022/11/14 07:01:18;;;;;;;72.28;43.38;;;5.60;99.90;;;;;;5040691;28;20150;-65
2022/11/14 07:03:44;;;;;;;72.60;44.05;;;5.60;99.90;;;;;;5054524;28;20041;-66
2022/11/14 07:06:13;;;;;;;71.30;44.03;;;5.60;99.90;;;;;;5055552;28;20033;-66
2022/11/14 07:08:39;;;;;;;69.43;42.15;;;5.60;99.90;;;;;;5040591;28;20056;-66
2022/11/14 07:11:07;;;;;;;72.47;44.47;;;5.50;99.90;;;;;;5054080;28;20037;-66
2022/11/14 07:13:33;;;;;;;77.50;44.65;;;5.50;99.90;;;;;;5063011;28;20060;-66
2022/11/14 07:16:00;;;;;;;72.30;43.38;;;5.50;99.90;;;;;;5057278;28;20048;-66
2022/11/14 07:18:25;;;;;;;73.53;44.08;;;5.50;99.90;;;;;;5061926;28;20190;-65
2022/11/14 07:21:04;;;;;;;76.30;45.58;;;5.40;99.90;;;;;;5064061;28;20120;-66
2022/11/14 07:23:32;;;;;;;76.55;43.88;;;5.40;99.90;;;;;;5063534;28;20044;-66
2022/11/14 07:26:06;;;;;;;77.90;43.80;;;5.40;99.90;;;;;;5057318;28;20037;-66
2022/11/14 07:28:33;;;;;;;76.93;43.67;;;5.40;99.90;;;;;;5061918;28;20063;-65
2022/11/14 07:31:02;;;;;;;75.55;44.95;;;5.30;99.90;;;;;;5066344;28;20432;-65
2022/11/14 07:33:29;;;;;;;74.18;44.60;;;5.30;99.90;;;;;;5060601;28;20548;-66
2022/11/14 07:35:55;;;;;;;75.80;45.13;;;5.30;99.90;;;;;;5058930;28;20033;-66
2022/11/14 07:38:20;;;;;;;76.72;45.63;;;5.30;99.90;;;;;;5067845;28;20047;-66
2022/11/14 07:40:57;;;;;;;77.65;45.33;;;5.40;99.90;;;;;;5063638;28;20028;-66
2022/11/14 07:43:23;;;;;;;80.22;46.00;;;5.30;99.90;;;;;;5060025;28;20076;-66
2022/11/14 07:45:49;;;;;;;81.72;45.33;;;5.40;99.90;;;;;;5062541;28;20036;-65
2022/11/14 07:48:15;;;;;;;86.70;46.85;;;5.40;99.90;;;;;;5061892;28;22109;-66
2022/11/14 07:50:41;;;;;;;82.75;46.97;;;5.40;99.90;;;;;;5064537;28;20468;-66
2022/11/14 07:53:07;;;;;;;80.50;48.35;;;5.50;99.90;;;;;;5060346;28;20045;-65
2022/11/14 07:55:36;;;;;;;81.35;46.08;;;5.50;99.90;;;;;;5056637;28;20041;-65
2022/11/14 07:58:02;;;;;;;79.30;46.38;;;5.50;99.90;;;;;;5064407;28;20068;-65
2022/11/14 08:00:28;;;;;;;83.80;48.65;;;5.50;99.90;;;;;;5061113;28;20117;-65
2022/11/14 08:02:54;;;;;;;83.57;47.53;;;5.50;99.90;;;;;;5058445;28;20033;-65
2022/11/14 08:05:20;;;;;;;80.40;44.67;;;5.60;99.90;;;;;;5066738;28;20455;-65
2022/11/14 08:07:49;;;;;;;79.43;47.08;;;5.50;99.90;;;;;;5060787;28;20123;-64
2022/11/14 08:10:16;;;;;;;79.25;46.78;;;5.60;99.90;;;;;;5059846;28;20047;-65
2022/11/14 08:12:42;;;;;;;80.38;46.53;;;5.60;99.90;;;;;;5059730;28;20048;-65
2022/11/14 08:15:10;;;;;;;80.53;46.95;;;5.50;99.90;;;;;;5061473;28;20051;-65
2022/11/14 08:17:36;;;;;;;74.47;46.17;;;5.70;99.90;;;;;;5046883;28;20048;-65
2022/11/14 08:20:03;;;;;;;79.75;47.67;;;5.70;99.90;;;;;;5058297;28;20035;-65
2022/11/14 08:22:30;;;;;;;77.85;45.83;;;5.70;99.90;;;;;;5060243;28;20045;-65
2022/11/14 08:24:56;;;;;;;72.65;43.40;;;5.80;99.90;;;;;;5055336;28;20120;-66
2022/11/14 08:27:22;;;;;;;71.70;43.85;;;5.80;99.90;;;;;;5061548;28;20048;-66
2022/11/14 08:29:49;;;;;;;69.35;44.70;;;5.80;99.90;;;;;;5058335;28;20037;-65
2022/11/14 08:32:16;;;;;;;71.72;43.08;;;5.80;99.90;;;;;;5059880;28;20097;-66
2022/11/14 08:34:42;;;;;;;73.85;44.25;;;5.80;99.90;;;;;;5057147;28;20160;-66
2022/11/14 08:37:07;;;;;;;69.97;42.83;;;5.90;99.90;;;;;;5060797;28;20195;-66
2022/11/14 08:39:33;;;;;;;68.85;43.58;;;5.90;99.90;;;;;;5060218;28;20047;-65
2022/11/14 08:41:59;;;;;;;68.45;42.40;;;6.00;99.90;;;;;;5043698;28;20049;-65
2022/11/14 08:44:24;;;;;;;67.05;42.92;;;6.10;99.90;;;;;;5063330;28;20041;-65
2022/11/14 08:46:50;;;;;;;68.85;43.25;;;6.20;99.90;;;;;;5063270;28;20514;-66
2022/11/14 08:49:16;;;;;;;71.63;43.72;;;6.40;99.90;;;;;;5059387;28;20040;-65
2022/11/14 08:51:41;;;;;;;64.50;42.00;;;6.50;99.90;;;;;;5059381;28;20052;-65
2022/11/14 08:54:07;;;;;;;61.72;40.55;;;6.90;99.90;;;;;;5063667;28;20130;-65
2022/11/14 08:56:33;;;;;;;62.10;41.70;;;7.30;99.90;;;;;;5061563;28;20040;-65
2022/11/14 08:59:02;;;;;;;62.22;41.10;;;7.60;99.90;;;;;;5061907;28;20043;-65
2022/11/14 09:01:28;;;;;;;59.92;40.78;;;7.90;99.90;;;;;;5057028;28;20033;-65
2022/11/14 09:03:54;;;;;;;55.67;38.42;;;8.10;99.90;;;;;;5064640;28;20063;-64
2022/11/14 09:06:19;;;;;;;61.53;40.50;;;8.20;99.90;;;;;;5042467;28;20399;-65
2022/11/14 09:08:45;;;;;;;58.42;38.17;;;8.20;99.90;;;;;;5065894;28;20036;-65
2022/11/14 09:11:11;;;;;;;57.10;39.97;;;8.30;99.90;;;;;;5060936;28;20475;-65
2022/11/14 09:13:36;;;;;;;55.17;39.17;;;8.20;99.90;;;;;;5062010;28;20044;-66
2022/11/14 09:16:02;;;;;;;53.95;39.08;;;8.10;99.90;;;;;;5058574;28;20051;-66
2022/11/14 09:18:29;;;;;;;53.80;39.10;;;8.20;99.90;;;;;;5060622;28;20090;-65
2022/11/14 09:21:00;;;;;;;55.13;38.25;;;8.30;99.90;;;;;;5055430;28;20492;-66
2022/11/14 09:23:25;;;;;;;60.65;39.58;;;8.20;99.90;;;;;;5064405;28;20537;-65
2022/11/14 09:25:53;;;;;;;56.10;39.05;;;8.00;99.90;;;;;;5060754;28;20112;-65
2022/11/14 09:28:19;;;;;;;55.15;37.75;;;8.20;99.90;;;;;;5064644;28;20536;-65
2022/11/14 09:30:45;;;;;;;56.35;39.22;;;8.40;99.90;;;;;;5058287;28;20125;-65
2022/11/14 09:33:10;;;;;;;50.55;35.92;;;8.60;99.90;;;;;;5060425;28;20473;-66
2022/11/14 09:35:36;;;;;;;50.88;36.03;;;8.90;99.90;;;;;;5057386;28;20040;-65
2022/11/14 09:38:08;;;;;;;49.70;36.40;;;9.30;99.90;;;;;;5059653;28;20098;-66
2022/11/14 09:41:08;;;;;;;50.20;35.28;;;9.90;99.90;;;;;;5043728;28;20083;-65
2022/11/14 09:43:46;;;;;;;48.70;35.75;;;10.30;99.90;;;;;;5062833;28;20052;-65
2022/11/14 09:46:21;;;;;;;50.20;34.70;;;10.60;99.90;;;;;;5063135;28;20333;-65
2022/11/14 09:48:47;;;;;;;44.75;33.67;;;10.90;99.90;;;;;;5059560;28;20033;-66
2022/11/14 09:51:20;;;;;;;47.22;35.08;;;10.80;99.90;;;;;;5056957;28;20634;-65
2022/11/14 09:53:55;;;;;;;44.05;33.40;;;10.50;99.90;;;;;;5061906;28;20068;-65
2022/11/14 09:56:24;;;;;;;;;;;10.50;99.90;;;;;;5057553;28;20119;-65
2022/11/14 09:58:50;;;;;;;47.05;33.85;;;10.40;99.90;;;;;;5061192;28;19920;-65
2022/11/14 10:01:53;;;;;;;45.40;35.17;;;10.10;99.90;;;;;;5057699;28;20036;-65
2022/11/14 10:04:45;;;;;;;45.90;34.60;;;9.80;99.90;;;;;;5061309;28;20040;-66
2022/11/14 10:07:20;;;;;;;45.83;33.83;;;9.30;99.90;;;;;;5041127;28;20077;-65
2022/11/14 10:09:53;;;;;;;45.70;34.00;;;9.00;99.90;;;;;;5062488;28;20044;-66
2022/11/14 10:12:33;;;;;;;43.33;32.65;;;8.80;99.90;;;;;;5056935;28;20068;-65
2022/11/14 10:15:12;;;;;;;46.08;33.28;;;8.60;99.90;;;;;;5059429;28;20051;-64
2022/11/14 10:17:49;;;;;;;48.53;35.35;;;8.50;99.90;;;;;;5059622;28;20136;-66
2022/11/14 10:20:36;;;;;;;46.03;33.95;;;8.30;99.90;;;;;;5060480;28;20043;-65
2022/11/14 10:23:12;;;;;;;44.97;33.65;;;8.20;99.90;;;;;;5041306;28;20044;-66
2022/11/14 10:26:12;;;;;;;44.90;32.55;;;8.30;99.90;;;;;;5057996;28;20465;-66
2022/11/14 10:29:12;;;;;;;50.55;33.33;;;8.20;99.90;;;;;;5058188;28;20043;-65
2022/11/14 10:32:02;;;;;;;44.22;33.75;;;8.20;99.90;;;;;;5059608;28;20127;-66
2022/11/14 10:34:34;;;;;;;44.17;32.53;;;8.10;99.90;;;;;;5055801;28;20089;-65
2022/11/14 10:37:05;;;;;;;43.05;30.80;;;8.00;99.90;;;;;;5053471;28;20068;-64
2022/11/14 10:39:48;;;;;;;47.10;32.70;;;8.00;99.90;;;;;;5061919;28;20062;-65
2022/11/14 10:42:37;;;;;;;42.78;30.63;;;7.90;99.90;;;;;;5063446;28;20156;-65
2022/11/14 10:45:19;;;;;;;43.75;31.48;;;7.90;99.90;;;;;;5059892;28;20048;-64
2022/11/14 10:47:53;;;;;;;42.97;32.33;;;7.70;99.90;;;;;;5045468;28;20064;-65
2022/11/14 10:50:23;;;;;;;46.03;33.78;;;7.70;99.90;;;;;;5062501;28;20152;-65
2022/11/14 10:52:53;;;;;;;44.90;31.85;;;7.60;99.90;;;;;;5056729;28;20502;-65
2022/11/14 10:55:20;;;;;;;43.75;31.35;;;7.60;99.90;;;;;;5060124;28;20067;-66
2022/11/14 10:57:46;;;;;;;44.95;32.05;;;7.70;99.90;;;;;;5060156;28;20043;-65
2022/11/14 11:00:17;;;;;;;45.85;33.15;;;7.80;99.90;;;;;;5043320;28;20036;-65
2022/11/14 11:02:49;;;;;;;45.20;33.35;;;7.90;99.90;;;;;;5061099;28;20349;-65
2022/11/14 11:05:17;;;;;;;44.30;33.45;;;7.90;99.90;;;;;;5059471;28;20041;-65
2022/11/14 11:13:47;;;;;;;44.60;32.72;;;7.90;99.90;;;;;;5057625;28;20048;-65
2022/11/14 11:16:13;;;;;;;40.38;31.00;;;7.90;99.90;;;;;;5061687;28;20549;-64
2022/11/14 11:18:38;;;;;;;42.95;31.63;;;7.80;99.90;;;;;;5060026;28;20123;-65
2022/11/14 11:21:13;;;;;;;45.95;32.85;;;7.80;99.90;;;;;;5040599;28;20040;-64
2022/11/14 11:23:49;;;;;;;43.45;31.10;;;7.80;99.90;;;;;;5059440;28;20392;-64
2022/11/14 11:26:24;;;;;;;41.65;31.35;;;7.70;99.90;;;;;;5059198;28;20068;-65
2022/11/14 11:29:08;;;;;;;;;;;7.80;99.90;;;;;;5062254;28;20404;-64
2022/11/14 11:31:54;;;;;;;40.70;29.80;;;7.80;99.90;;;;;;5059651;28;19983;-64
2022/11/14 11:34:26;;;;;;;39.55;30.02;;;7.80;99.90;;;;;;5057072;28;20049;-65
2022/11/14 11:37:18;;;;;;;43.03;30.58;;;7.80;99.90;;;;;;5064607;28;20491;-64
2022/11/14 11:39:53;;;;;;;43.42;30.75;;;7.90;99.90;;;;;;5054284;28;20542;-65
2022/11/14 11:42:24;;;;;;;;;;;7.80;99.90;;;;;;5061004;28;20044;-65
2022/11/14 11:44:57;;;;;;;39.88;29.45;;;7.90;99.90;;;;;;5064063;28;19917;-64
2022/11/14 11:47:25;;;;;;;44.00;30.77;;;7.90;99.90;;;;;;5066190;28;20147;-64
2022/11/14 11:49:51;;;;;;;38.60;29.10;;;7.90;99.90;;;;;;5062296;28;20033;-65
2022/11/14 11:52:26;;;;;;;41.25;29.52;;;8.00;99.90;;;;;;5062628;28;20044;-65
2022/11/14 11:55:07;;;;;;;38.17;28.65;;;8.00;99.90;;;;;;5059518;28;20132;-64
2022/11/14 11:57:45;;;;;;;38.38;29.02;;;8.00;99.90;;;;;;5063595;28;20383;-64
2022/11/14 12:00:17;;;;;;;39.60;29.17;;;8.00;99.90;;;;;;5064339;28;20029;-65
2022/11/14 12:02:46;;;;;;;38.80;28.77;;;8.00;99.90;;;;;;5062928;28;20124;-64
2022/11/14 12:05:15;;;;;;;39.60;29.00;;;8.10;99.90;;;;;;5063071;28;20032;-66
2022/11/14 12:08:05;;;;;;;37.50;28.10;;;8.10;99.90;;;;;;5062510;28;20384;-65
2022/11/14 12:10:36;;;;;;;37.63;27.77;;;8.10;99.90;;;;;;5060403;28;20392;-66
2022/11/14 12:13:10;;;;;;;39.60;28.00;;;8.20;99.90;;;;;;5063696;28;20109;-65
2022/11/14 12:16:02;;;;;;;36.40;27.35;;;8.30;99.90;;;;;;5064535;28;20515;-65
2022/11/14 12:18:56;;;;;;;34.88;25.48;;;8.30;99.90;;;;;;5031594;28;20049;-65
2022/11/14 12:21:43;;;;;;;34.45;26.55;;;8.30;99.90;;;;;;5057214;28;20044;-64
2022/11/14 12:24:40;;;;;;;35.72;26.80;;;8.30;99.90;;;;;;5064079;28;20484;-65
2022/11/14 12:27:17;;;;;;;34.83;27.30;;;8.30;99.90;;;;;;5041688;28;20028;-64
2022/11/14 12:30:27;;;;;;;34.70;24.90;;;8.30;99.90;;;;;;5048997;28;20079;-65
2022/11/14 12:33:02;;;;;;;32.33;24.55;;;8.30;99.90;;;;;;5019949;28;20075;-65
2022/11/14 12:35:33;;;;;;;35.08;26.88;;;8.30;99.90;;;;;;5051966;28;20492;-66
2022/11/14 12:38:03;;;;;;;33.88;25.17;;;8.40;99.90;;;;;;5050893;28;20047;-64
2022/11/14 12:40:39;;;;;;;34.90;25.73;;;8.40;99.90;;;;;;5078101;28;21085;-65
2022/11/14 12:43:27;;;;;;;32.40;24.10;;;8.40;99.90;;;;;;5057359;28;20392;-65
2022/11/14 12:45:57;;;;;;;31.13;23.63;;;8.40;99.90;;;;;;5058337;28;20025;-65
2022/11/14 12:48:25;;;;;;;32.70;24.65;;;8.50;99.90;;;;;;5059943;28;20036;-65
2022/11/14 12:50:56;;;;;;;33.75;24.17;;;8.50;99.90;;;;;;5061596;28;20051;-64
2022/11/14 12:53:36;;;;;;;32.35;24.02;;;8.50;99.90;;;;;;5056501;28;20443;-65